KNRB/NRB METAR and TAF weather

Enter ICAO airport designator
Station Type Date Time Source
KNRB METAR 2019/08/23 14:52 UTC NOAA

KNRB 231452Z 05007KT 10SM SCT030 BKN250 31/24 A3007 RMK AO2 SLP181 T03110244 51008


Station Type Date Time Source
KNRB Decoded METAR 2019/08/23 14:52 UTC NOAA

Station name not available
Aug 23, 2019 - 10:52 AM EDT / 2019.08.23 1452 UTC
Wind: from the NE (050 degrees) at 8 MPH (7 KT):0
Visibility: 10 mile(s):0
Sky conditions: mostly cloudy
Temperature: 88.0 F (31.1 C)
Heat index: 98.6 F (37.0 C):1
Dew Point: 75.9 F (24.4 C)
Relative Humidity: 67%
Pressure (altimeter): 30.07 in. Hg (1018 hPa)
Pressure tendency: 0.02 inches (0.8 hPa) higher than three hours ago
ob: KNRB 231452Z 05007KT 10SM SCT030 BKN250 31/24 A3007 RMK AO2 SLP181 T03110244 51008
cycle: 15

Station Type Date Time Source
KNRB TAF 2019/08/23 15:09 UTC NOAA

TAF KNRB 2315/2415 07006KT 9999 SCT030 BKN250 QNH3000INS
FM231900 10010KT 9999 SCT030 BKN250 QNH3000INS
FM240200 13006KT 9999 FEW030 SCT250 QNH3005INS T32/2319Z T25/2410Z FN20023

Example: see airport list